Kamo Maru — JL6625 — position and weather

sailwx.info

Track history (hours):
 
Tides and Currents Weather Stations Pressure Air Temp Water Temp Dewpoint Dewpoint Depression Visibility Wind Speed Wind Dir Waves Ship Positions

Kamo Maru

Last reported at 2018-May-21 10:49 UTC. Time now 2018-May-22 02:15 UTC.
Position N 34°40' E 135°12'.

Length 40 m.

Type: Cargo ship. MMSI: 431501649.

Date/timePositionNaut miles runAvg speedWind from/ knotsBaromVisibWave heightAir tempDewpointWater temp
2018-May-21 10:49N 34°40' E 135°12'3 8.8
2018-May-21 10:30N 34°38' E 135°10'2910.0
2018-May-21 07:35N 34°29' E 134°36'1 9.6
2018-May-21 07:30N 34°28' E 134°36'  
2018-May-17 12:37N 34°28' E 134°30'9 9.5
2018-May-17 11:42N 34°31' E 134°39'210.5
2018-May-17 11:30N 34°32' E 134°42'2110.5
2018-May-17 09:29N 34°36' E 135°07'4 9.1
2018-May-17 09:00N 34°39' E 135°11'0 0.0
2018-May-16 12:34N 34°40' E 135°12'1 8.7
2018-May-16 12:30N 34°39' E 135°11'4 7.9
2018-May-16 11:58N 34°37' E 135°07'28 7.4
2018-May-16 08:13N 34°28' E 134°35'2 9.6
2018-May-16 08:00N 34°27' E 134°33'  
Track history (hours):
 
Tides and Currents Weather Stations Pressure Air Temp Water Temp Dewpoint Dewpoint Depression Visibility Wind Speed Wind Dir Waves Ship Positions

Kamo Maru

Last reported at 2018-May-21 10:49 UTC. Time now 2018-May-22 02:15 UTC.
Position N 34°40' E 135°12'.

Length 40 m.

Type: Cargo ship. MMSI: 431501649.

Date/timePositionNaut miles runAvg speedWind from/ knotsBaromVisibWave heightAir tempDewpointWater temp
2018-May-21 10:49N 34°40' E 135°12'3 8.8
2018-May-21 10:30N 34°38' E 135°10'2910.0
2018-May-21 07:35N 34°29' E 134°36'1 9.6
2018-May-21 07:30N 34°28' E 134°36'  
2018-May-17 12:37N 34°28' E 134°30'9 9.5
2018-May-17 11:42N 34°31' E 134°39'210.5
2018-May-17 11:30N 34°32' E 134°42'2110.5
2018-May-17 09:29N 34°36' E 135°07'4 9.1
2018-May-17 09:00N 34°39' E 135°11'0 0.0
2018-May-16 12:34N 34°40' E 135°12'1 8.7
2018-May-16 12:30N 34°39' E 135°11'4 7.9
2018-May-16 11:58N 34°37' E 135°07'28 7.4
2018-May-16 08:13N 34°28' E 134°35'2 9.6
2018-May-16 08:00N 34°27' E 134°33'  

Dump ship's entire track history